sensor_id;sensor_type;location;lat;lon;timestamp;pressure;altitude;pressure_sealevel;temperature;humidity
51299;BME280;37382;45.192;9.790;2023-06-24T00:01:49;101237.19;;;24.49;100.00
51299;BME280;37382;45.192;9.790;2023-06-24T00:04:16;101233.84;;;24.31;100.00
51299;BME280;37382;45.192;9.790;2023-06-24T00:06:46;101237.47;;;24.73;100.00
51299;BME280;37382;45.192;9.790;2023-06-24T00:09:13;101235.72;;;24.98;100.00
51299;BME280;37382;45.192;9.790;2023-06-24T00:11:41;101231.75;;;25.25;100.00
51299;BME280;37382;45.192;9.790;2023-06-24T00:14:09;101229.22;;;25.33;100.00
51299;BME280;37382;45.192;9.790;2023-06-24T00:16:38;101226.75;;;25.21;100.00
51299;BME280;37382;45.192;9.790;2023-06-24T00:19:05;101230.28;;;25.48;100.00
51299;BME280;37382;45.192;9.790;2023-06-24T00:21:34;101222.25;;;25.26;100.00
51299;BME280;37382;45.192;9.790;2023-06-24T00:24:04;101231.09;;;25.48;100.00
51299;BME280;37382;45.192;9.790;2023-06-24T00:26:32;101228.22;;;25.69;100.00
51299;BME280;37382;45.192;9.790;2023-06-24T00:29:00;101228.25;;;25.59;100.00
51299;BME280;37382;45.192;9.790;2023-06-24T00:31:27;101219.75;;;25.24;100.00
51299;BME280;37382;45.192;9.790;2023-06-24T00:33:55;101220.00;;;25.43;100.00
51299;BME280;37382;45.192;9.790;2023-06-24T00:36:23;101228.63;;;25.42;100.00
51299;BME280;37382;45.192;9.790;2023-06-24T00:38:51;101226.25;;;25.69;100.00
51299;BME280;37382;45.192;9.790;2023-06-24T00:41:18;101229.94;;;25.54;100.00
51299;BME280;37382;45.192;9.790;2023-06-24T00:43:46;101228.63;;;25.42;100.00
51299;BME280;37382;45.192;9.790;2023-06-24T00:46:15;101223.72;;;25.08;100.00
51299;BME280;37382;45.192;9.790;2023-06-24T00:48:42;101219.00;;;25.03;100.00
51299;BME280;37382;45.192;9.790;2023-06-24T00:51:10;101219.09;;;24.72;100.00
51299;BME280;37382;45.192;9.790;2023-06-24T00:53:37;101211.84;;;24.81;100.00
51299;BME280;37382;45.192;9.790;2023-06-24T00:56:06;101209.94;;;24.25;100.00
51299;BME280;37382;45.192;9.790;2023-06-24T00:58:35;101212.13;;;24.44;100.00
51299;BME280;37382;45.192;9.790;2023-06-24T01:01:04;101215.25;;;24.58;100.00
51299;BME280;37382;45.192;9.790;2023-06-24T01:03:33;101212.91;;;24.91;100.00
51299;BME280;37382;45.192;9.790;2023-06-24T01:06:00;101211.84;;;24.71;100.00
51299;BME280;37382;45.192;9.790;2023-06-24T01:08:29;101209.63;;;24.78;100.00
51299;BME280;37382;45.192;9.790;2023-06-24T01:10:57;101216.28;;;24.77;100.00
51299;BME280;37382;45.192;9.790;2023-06-24T01:13:25;101213.41;;;25.13;100.00
51299;BME280;37382;45.192;9.790;2023-06-24T01:15:53;101214.47;;;25.22;100.00
51299;BME280;37382;45.192;9.790;2023-06-24T01:18:27;101218.00;;;24.32;100.00
51299;BME280;37382;45.192;9.790;2023-06-24T01:21:01;101218.28;;;24.61;100.00
51299;BME280;37382;45.192;9.790;2023-06-24T01:26:39;101218.84;;;24.02;100.00
51299;BME280;37382;45.192;9.790;2023-06-24T01:29:42;101215.22;;;24.06;100.00
51299;BME280;37382;45.192;9.790;2023-06-24T01:35:08;101219.09;;;23.90;100.00
51299;BME280;37382;45.192;9.790;2023-06-24T01:37:41;101225.69;;;23.73;100.00
51299;BME280;37382;45.192;9.790;2023-06-24T01:40:23;101229.34;;;23.74;100.00
51299;BME280;37382;45.192;9.790;2023-06-24T01:42:53;101220.41;;;23.61;100.00
51299;BME280;37382;45.192;9.790;2023-06-24T01:45:27;101217.38;;;23.68;100.00
51299;BME280;37382;45.192;9.790;2023-06-24T01:48:02;101221.56;;;23.71;100.00
51299;BME280;37382;45.192;9.790;2023-06-24T01:50:34;101221.53;;;23.60;100.00
51299;BME280;37382;45.192;9.790;2023-06-24T01:53:05;101218.47;;;23.67;100.00
51299;BME280;37382;45.192;9.790;2023-06-24T01:55:34;101214.81;;;23.46;100.00
51299;BME280;37382;45.192;9.790;2023-06-24T01:58:05;101219.53;;;23.45;100.00
51299;BME280;37382;45.192;9.790;2023-06-24T02:00:35;101223.13;;;23.46;100.00
51299;BME280;37382;45.192;9.790;2023-06-24T02:03:04;101229.94;;;23.13;100.00
51299;BME280;37382;45.192;9.790;2023-06-24T02:05:33;101230.13;;;23.59;100.00
51299;BME280;37382;45.192;9.790;2023-06-24T02:08:02;101219.34;;;23.83;100.00
51299;BME280;37382;45.192;9.790;2023-06-24T02:10:31;101228.72;;;23.61;100.00
51299;BME280;37382;45.192;9.790;2023-06-24T02:13:02;101225.63;;;23.37;100.00
51299;BME280;37382;45.192;9.790;2023-06-24T02:15:30;101227.66;;;23.04;100.00
51299;BME280;37382;45.192;9.790;2023-06-24T02:18:00;101231.13;;;23.27;100.00
51299;BME280;37382;45.192;9.790;2023-06-24T02:20:31;101231.84;;;23.07;100.00
51299;BME280;37382;45.192;9.790;2023-06-24T02:22:59;101237.56;;;23.38;100.00
51299;BME280;37382;45.192;9.790;2023-06-24T02:25:27;101236.69;;;23.32;100.00
51299;BME280;37382;45.192;9.790;2023-06-24T02:27:56;101233.31;;;23.20;100.00
51299;BME280;37382;45.192;9.790;2023-06-24T02:30:24;101236.56;;;23.80;100.00
51299;BME280;37382;45.192;9.790;2023-06-24T02:32:52;101232.44;;;23.93;100.00
51299;BME280;37382;45.192;9.790;2023-06-24T02:35:21;101227.72;;;23.98;100.00
51299;BME280;37382;45.192;9.790;2023-06-24T02:37:48;101221.91;;;24.00;100.00
51299;BME280;37382;45.192;9.790;2023-06-24T02:40:16;101228.81;;;23.87;100.00
51299;BME280;37382;45.192;9.790;2023-06-24T02:42:43;101241.56;;;23.83;100.00
51299;BME280;37382;45.192;9.790;2023-06-24T02:45:11;101237.44;;;23.91;100.00
51299;BME280;37382;45.192;9.790;2023-06-24T02:47:41;101245.69;;;23.65;100.00
51299;BME280;37382;45.192;9.790;2023-06-24T02:50:11;101248.44;;;23.50;100.00
51299;BME280;37382;45.192;9.790;2023-06-24T02:52:40;101252.47;;;23.21;100.00
51299;BME280;37382;45.192;9.790;2023-06-24T02:55:11;101249.19;;;22.87;100.00
51299;BME280;37382;45.192;9.790;2023-06-24T02:57:47;101253.97;;;22.54;100.00
51299;BME280;37382;45.192;9.790;2023-06-24T03:00:35;101249.13;;;22.39;100.00
51299;BME280;37382;45.192;9.790;2023-06-24T03:03:08;101262.13;;;22.33;100.00
51299;BME280;37382;45.192;9.790;2023-06-24T03:05:46;101262.28;;;21.94;100.00
51299;BME280;37382;45.192;9.790;2023-06-24T03:08:17;101269.28;;;21.75;100.00
51299;BME280;37382;45.192;9.790;2023-06-24T03:10:47;101273.97;;;21.74;100.00
51299;BME280;37382;45.192;9.790;2023-06-24T03:13:19;101271.81;;;22.03;100.00
51299;BME280;37382;45.192;9.790;2023-06-24T03:15:53;101278.00;;;21.89;100.00
51299;BME280;37382;45.192;9.790;2023-06-24T03:18:22;101289.03;;;22.11;100.00
51299;BME280;37382;45.192;9.790;2023-06-24T03:20:49;101280.56;;;22.23;100.00
51299;BME280;37382;45.192;9.790;2023-06-24T03:23:22;101290.94;;;22.05;100.00
51299;BME280;37382;45.192;9.790;2023-06-24T03:25:50;101288.31;;;21.93;100.00
51299;BME280;37382;45.192;9.790;2023-06-24T03:28:17;101280.72;;;22.11;100.00
51299;BME280;37382;45.192;9.790;2023-06-24T03:30:51;101298.22;;;21.89;100.00
51299;BME280;37382;45.192;9.790;2023-06-24T03:33:20;101286.78;;;21.80;100.00
51299;BME280;37382;45.192;9.790;2023-06-24T03:35:48;101292.81;;;21.99;100.00
51299;BME280;37382;45.192;9.790;2023-06-24T03:38:19;101290.50;;;22.46;100.00
51299;BME280;37382;45.192;9.790;2023-06-24T03:40:48;101290.75;;;22.17;100.00
51299;BME280;37382;45.192;9.790;2023-06-24T03:43:16;101308.13;;;21.41;100.00
51299;BME280;37382;45.192;9.790;2023-06-24T03:45:44;101301.16;;;21.16;100.00
51299;BME280;37382;45.192;9.790;2023-06-24T03:48:11;101309.09;;;21.68;100.00
51299;BME280;37382;45.192;9.790;2023-06-24T03:50:39;101305.81;;;21.32;100.00
51299;BME280;37382;45.192;9.790;2023-06-24T03:53:06;101312.22;;;21.16;100.00
51299;BME280;37382;45.192;9.790;2023-06-24T03:55:35;101309.22;;;21.18;100.00
51299;BME280;37382;45.192;9.790;2023-06-24T03:58:04;101309.91;;;21.69;100.00
51299;BME280;37382;45.192;9.790;2023-06-24T04:00:32;101312.03;;;21.84;100.00
51299;BME280;37382;45.192;9.790;2023-06-24T04:02:59;101305.00;;;21.32;100.00
51299;BME280;37382;45.192;9.790;2023-06-24T04:05:28;101319.91;;;21.31;100.00
51299;BME280;37382;45.192;9.790;2023-06-24T04:07:56;101323.72;;;21.64;100.00
51299;BME280;37382;45.192;9.790;2023-06-24T04:10:23;101327.03;;;21.88;100.00
51299;BME280;37382;45.192;9.790;2023-06-24T04:12:52;101329.28;;;21.91;100.00
51299;BME280;37382;45.192;9.790;2023-06-24T04:15:19;101334.63;;;21.98;100.00
51299;BME280;37382;45.192;9.790;2023-06-24T04:17:47;101338.66;;;22.39;100.00
51299;BME280;37382;45.192;9.790;2023-06-24T04:20:14;101333.97;;;22.13;100.00
51299;BME280;37382;45.192;9.790;2023-06-24T04:22:42;101337.66;;;22.24;100.00
51299;BME280;37382;45.192;9.790;2023-06-24T04:25:10;101322.81;;;22.35;100.00
51299;BME280;37382;45.192;9.790;2023-06-24T04:27:38;101336.06;;;22.28;100.00
51299;BME280;37382;45.192;9.790;2023-06-24T04:30:08;101328.91;;;22.32;100.00
51299;BME280;37382;45.192;9.790;2023-06-24T04:32:35;101334.31;;;22.49;100.00
51299;BME280;37382;45.192;9.790;2023-06-24T04:35:03;101328.31;;;22.57;100.00
51299;BME280;37382;45.192;9.790;2023-06-24T04:37:37;101351.63;;;22.07;100.00
51299;BME280;37382;45.192;9.790;2023-06-24T04:40:05;101355.34;;;22.17;100.00
51299;BME280;37382;45.192;9.790;2023-06-24T04:42:33;101351.59;;;22.56;100.00
51299;BME280;37382;45.192;9.790;2023-06-24T04:45:00;101353.28;;;22.95;100.00
51299;BME280;37382;45.192;9.790;2023-06-24T04:47:28;101345.41;;;23.14;100.00
51299;BME280;37382;45.192;9.790;2023-06-24T04:49:56;101356.28;;;22.88;100.00
51299;BME280;37382;45.192;9.790;2023-06-24T04:52:24;101359.63;;;22.90;100.00
51299;BME280;37382;45.192;9.790;2023-06-24T04:54:51;101361.22;;;22.48;100.00
51299;BME280;37382;45.192;9.790;2023-06-24T04:57:32;101363.59;;;22.99;100.00
51299;BME280;37382;45.192;9.790;2023-06-24T05:00:02;101369.47;;;23.08;100.00
51299;BME280;37382;45.192;9.790;2023-06-24T05:02:30;101371.34;;;22.97;100.00
51299;BME280;37382;45.192;9.790;2023-06-24T05:04:58;101371.53;;;23.18;100.00
51299;BME280;37382;45.192;9.790;2023-06-24T05:07:26;101376.63;;;23.36;100.00
51299;BME280;37382;45.192;9.790;2023-06-24T05:09:54;101373.22;;;23.24;100.00
51299;BME280;37382;45.192;9.790;2023-06-24T05:12:21;101383.09;;;23.47;100.00
51299;BME280;37382;45.192;9.790;2023-06-24T05:14:51;101385.59;;;23.54;100.00
51299;BME280;37382;45.192;9.790;2023-06-24T05:17:20;101388.44;;;23.59;100.00
51299;BME280;37382;45.192;9.790;2023-06-24T05:19:47;101392.56;;;23.56;100.00
51299;BME280;37382;45.192;9.790;2023-06-24T05:22:15;101391.03;;;23.81;100.00
51299;BME280;37382;45.192;9.790;2023-06-24T05:24:43;101397.31;;;23.61;100.00
51299;BME280;37382;45.192;9.790;2023-06-24T05:27:10;101394.28;;;23.68;100.00
51299;BME280;37382;45.192;9.790;2023-06-24T05:29:38;101400.38;;;23.59;100.00
51299;BME280;37382;45.192;9.790;2023-06-24T05:32:06;101402.53;;;23.47;100.00
51299;BME280;37382;45.192;9.790;2023-06-24T05:34:33;101402.50;;;23.90;100.00
51299;BME280;37382;45.192;9.790;2023-06-24T05:37:02;101415.31;;;24.01;100.00
51299;BME280;37382;45.192;9.790;2023-06-24T05:39:31;101412.38;;;24.33;100.00
51299;BME280;37382;45.192;9.790;2023-06-24T05:41:58;101413.97;;;24.19;100.00
51299;BME280;37382;45.192;9.790;2023-06-24T05:44:26;101415.63;;;24.10;100.00
51299;BME280;37382;45.192;9.790;2023-06-24T05:46:53;101416.81;;;24.24;100.00
51299;BME280;37382;45.192;9.790;2023-06-24T05:49:21;101423.50;;;24.39;100.00
51299;BME280;37382;45.192;9.790;2023-06-24T05:51:49;101421.81;;;24.27;100.00
51299;BME280;37382;45.192;9.790;2023-06-24T05:54:16;101429.28;;;24.17;100.00
51299;BME280;37382;45.192;9.790;2023-06-24T05:56:44;101422.97;;;24.47;100.00
51299;BME280;37382;45.192;9.790;2023-06-24T05:59:12;101421.25;;;24.36;100.00
51299;BME280;37382;45.192;9.790;2023-06-24T06:01:40;101416.72;;;23.98;100.00
51299;BME280;37382;45.192;9.790;2023-06-24T06:04:07;101422.59;;;24.12;100.00
51299;BME280;37382;45.192;9.790;2023-06-24T06:06:36;101429.00;;;24.18;100.00
51299;BME280;37382;45.192;9.790;2023-06-24T06:09:05;101434.03;;;24.26;100.00
51299;BME280;37382;45.192;9.790;2023-06-24T06:11:33;101424.72;;;23.85;100.00
51299;BME280;37382;45.192;9.790;2023-06-24T06:14:01;101419.88;;;24.43;100.00
51299;BME280;37382;45.192;9.790;2023-06-24T06:16:29;101432.97;;;24.43;100.00
51299;BME280;37382;45.192;9.790;2023-06-24T06:18:56;101430.47;;;24.46;100.00
51299;BME280;37382;45.192;9.790;2023-06-24T06:21:24;101436.66;;;24.74;100.00
51299;BME280;37382;45.192;9.790;2023-06-24T06:23:52;101446.97;;;25.15;100.00
51299;BME280;37382;45.192;9.790;2023-06-24T06:26:19;101447.84;;;25.36;100.00
51299;BME280;37382;45.192;9.790;2023-06-24T06:28:47;101436.41;;;25.37;100.00
51299;BME280;37382;45.192;9.790;2023-06-24T06:31:15;101437.25;;;25.28;100.00
51299;BME280;37382;45.192;9.790;2023-06-24T06:33:43;101443.34;;;25.55;100.00
51299;BME280;37382;45.192;9.790;2023-06-24T06:36:10;101450.28;;;25.63;100.00
51299;BME280;37382;45.192;9.790;2023-06-24T06:38:38;101448.34;;;25.59;100.00
51299;BME280;37382;45.192;9.790;2023-06-24T06:41:06;101441.59;;;25.80;100.00
51299;BME280;37382;45.192;9.790;2023-06-24T06:43:34;101448.91;;;25.55;100.00
51299;BME280;37382;45.192;9.790;2023-06-24T06:46:01;101437.66;;;25.91;100.00
51299;BME280;37382;45.192;9.790;2023-06-24T06:48:29;101448.81;;;26.07;100.00
51299;BME280;37382;45.192;9.790;2023-06-24T06:50:56;101442.38;;;26.06;100.00
51299;BME280;37382;45.192;9.790;2023-06-24T06:53:24;101442.66;;;26.10;100.00
51299;BME280;37382;45.192;9.790;2023-06-24T06:55:51;101441.72;;;26.25;100.00
51299;BME280;37382;45.192;9.790;2023-06-24T06:58:19;101442.66;;;25.95;100.00
51299;BME280;37382;45.192;9.790;2023-06-24T07:00:46;101437.34;;;26.08;100.00
51299;BME280;37382;45.192;9.790;2023-06-24T07:03:14;101439.25;;;26.18;100.00
51299;BME280;37382;45.192;9.790;2023-06-24T07:05:41;101440.56;;;26.36;100.00
51299;BME280;37382;45.192;9.790;2023-06-24T07:08:10;101446.56;;;26.09;100.00
51299;BME280;37382;45.192;9.790;2023-06-24T07:10:38;101445.81;;;26.43;100.00
51299;BME280;37382;45.192;9.790;2023-06-24T07:13:05;101452.44;;;25.92;100.00
51299;BME280;37382;45.192;9.790;2023-06-24T07:15:32;101451.03;;;26.05;100.00
51299;BME280;37382;45.192;9.790;2023-06-24T07:18:00;101447.34;;;26.20;100.00
51299;BME280;37382;45.192;9.790;2023-06-24T07:20:28;101451.28;;;26.14;100.00
51299;BME280;37382;45.192;9.790;2023-06-24T07:22:55;101447.94;;;25.96;100.00
51299;BME280;37382;45.192;9.790;2023-06-24T07:25:23;101446.59;;;26.04;100.00
51299;BME280;37382;45.192;9.790;2023-06-24T07:27:50;101442.53;;;26.31;100.00
51299;BME280;37382;45.192;9.790;2023-06-24T07:30:18;101445.44;;;26.60;100.00
51299;BME280;37382;45.192;9.790;2023-06-24T07:32:46;101453.38;;;26.87;100.00
51299;BME280;37382;45.192;9.790;2023-06-24T07:35:13;101452.59;;;26.82;100.00
51299;BME280;37382;45.192;9.790;2023-06-24T07:37:42;101454.47;;;26.91;100.00
51299;BME280;37382;45.192;9.790;2023-06-24T07:40:10;101449.84;;;27.11;100.00
51299;BME280;37382;45.192;9.790;2023-06-24T07:42:38;101449.53;;;27.12;100.00
51299;BME280;37382;45.192;9.790;2023-06-24T07:45:05;101451.28;;;27.03;100.00
51299;BME280;37382;45.192;9.790;2023-06-24T07:47:33;101464.03;;;27.14;100.00
51299;BME280;37382;45.192;9.790;2023-06-24T07:50:01;101456.97;;;27.22;100.00
51299;BME280;37382;45.192;9.790;2023-06-24T07:52:28;101452.34;;;27.07;100.00
51299;BME280;37382;45.192;9.790;2023-06-24T07:54:56;101451.16;;;27.19;100.00
51299;BME280;37382;45.192;9.790;2023-06-24T07:57:24;101448.81;;;27.60;97.89
51299;BME280;37382;45.192;9.790;2023-06-24T07:59:51;101445.84;;;27.76;85.46
51299;BME280;37382;45.192;9.790;2023-06-24T08:02:19;101459.97;;;27.90;86.68
51299;BME280;37382;45.192;9.790;2023-06-24T08:04:47;101454.22;;;28.05;76.32
51299;BME280;37382;45.192;9.790;2023-06-24T08:07:15;101451.38;;;28.29;72.13
51299;BME280;37382;45.192;9.790;2023-06-24T08:09:43;101451.22;;;28.39;65.64
51299;BME280;37382;45.192;9.790;2023-06-24T08:12:10;101452.28;;;28.44;66.24
51299;BME280;37382;45.192;9.790;2023-06-24T08:14:38;101450.69;;;28.56;65.22
51299;BME280;37382;45.192;9.790;2023-06-24T08:17:06;101450.88;;;28.84;62.86
51299;BME280;37382;45.192;9.790;2023-06-24T08:19:33;101457.16;;;28.57;61.43
51299;BME280;37382;45.192;9.790;2023-06-24T08:22:01;101445.53;;;28.26;60.10
51299;BME280;37382;45.192;9.790;2023-06-24T08:24:29;101449.28;;;28.40;60.50
51299;BME280;37382;45.192;9.790;2023-06-24T08:26:57;101445.63;;;28.20;61.01
51299;BME280;37382;45.192;9.790;2023-06-24T08:29:25;101446.78;;;28.57;64.78
51299;BME280;37382;45.192;9.790;2023-06-24T08:31:53;101441.50;;;28.75;62.51
51299;BME280;37382;45.192;9.790;2023-06-24T08:34:21;101447.13;;;29.08;62.36
51299;BME280;37382;45.192;9.790;2023-06-24T08:36:50;101439.94;;;29.21;57.43
51299;BME280;37382;45.192;9.790;2023-06-24T08:39:18;101436.31;;;29.34;55.90
51299;BME280;37382;45.192;9.790;2023-06-24T08:41:45;101445.88;;;29.33;58.80
51299;BME280;37382;45.192;9.790;2023-06-24T08:44:13;101442.78;;;29.49;56.87
51299;BME280;37382;45.192;9.790;2023-06-24T08:46:41;101445.69;;;29.43;56.25
51299;BME280;37382;45.192;9.790;2023-06-24T08:51:43;101438.75;;;29.55;55.58
51299;BME280;37382;45.192;9.790;2023-06-24T08:54:14;101435.44;;;29.67;56.66
51299;BME280;37382;45.192;9.790;2023-06-24T08:56:42;101444.34;;;29.55;58.27
51299;BME280;37382;45.192;9.790;2023-06-24T08:59:09;101438.44;;;29.70;53.36
51299;BME280;37382;45.192;9.790;2023-06-24T09:01:37;101442.06;;;29.71;55.14
51299;BME280;37382;45.192;9.790;2023-06-24T09:04:06;101439.56;;;29.69;52.42
51299;BME280;37382;45.192;9.790;2023-06-24T09:06:33;101440.22;;;29.80;52.46
51299;BME280;37382;45.192;9.790;2023-06-24T09:09:01;101436.06;;;29.77;50.09
51299;BME280;37382;45.192;9.790;2023-06-24T09:11:28;101436.09;;;29.91;49.82
51299;BME280;37382;45.192;9.790;2023-06-24T09:13:57;101428.91;;;29.71;52.15
51299;BME280;37382;45.192;9.790;2023-06-24T09:16:25;101433.50;;;29.81;49.31
51299;BME280;37382;45.192;9.790;2023-06-24T09:18:53;101438.06;;;29.91;51.99
51299;BME280;37382;45.192;9.790;2023-06-24T09:21:23;101439.09;;;29.81;49.26
51299;BME280;37382;45.192;9.790;2023-06-24T09:23:53;101445.41;;;29.59;50.22
51299;BME280;37382;45.192;9.790;2023-06-24T09:26:23;101427.16;;;29.75;50.79
51299;BME280;37382;45.192;9.790;2023-06-24T09:28:51;101429.28;;;29.64;50.92
51299;BME280;37382;45.192;9.790;2023-06-24T09:31:18;101437.34;;;29.99;49.75
51299;BME280;37382;45.192;9.790;2023-06-24T09:33:47;101428.09;;;29.98;47.51
51299;BME280;37382;45.192;9.790;2023-06-24T09:36:15;101438.78;;;29.83;45.83
51299;BME280;37382;45.192;9.790;2023-06-24T09:38:43;101420.81;;;29.97;50.57
51299;BME280;37382;45.192;9.790;2023-06-24T09:41:12;101429.66;;;29.91;49.49
51299;BME280;37382;45.192;9.790;2023-06-24T09:43:42;101419.25;;;29.77;49.32
51299;BME280;37382;45.192;9.790;2023-06-24T09:46:12;101416.44;;;30.05;47.25
51299;BME280;37382;45.192;9.790;2023-06-24T09:48:39;101409.78;;;30.01;48.40
51299;BME280;37382;45.192;9.790;2023-06-24T09:51:08;101417.56;;;30.18;49.09
51299;BME280;37382;45.192;9.790;2023-06-24T09:53:36;101418.34;;;29.82;51.91
51299;BME280;37382;45.192;9.790;2023-06-24T09:56:07;101409.91;;;29.96;49.74
51299;BME280;37382;45.192;9.790;2023-06-24T09:58:36;101411.66;;;29.92;50.15
51299;BME280;37382;45.192;9.790;2023-06-24T10:01:05;101408.88;;;29.92;50.23
51299;BME280;37382;45.192;9.790;2023-06-24T10:03:35;101411.84;;;29.68;48.21
51299;BME280;37382;45.192;9.790;2023-06-24T10:06:05;101408.66;;;29.47;51.27
51299;BME280;37382;45.192;9.790;2023-06-24T10:08:33;101403.63;;;30.13;51.59
51299;BME280;37382;45.192;9.790;2023-06-24T10:11:01;101401.19;;;30.34;50.80
51299;BME280;37382;45.192;9.790;2023-06-24T10:13:30;101393.91;;;30.47;48.72
51299;BME280;37382;45.192;9.790;2023-06-24T10:15:58;101396.22;;;30.31;47.69
51299;BME280;37382;45.192;9.790;2023-06-24T10:21:01;101392.22;;;30.82;48.75
51299;BME280;37382;45.192;9.790;2023-06-24T10:23:39;101394.63;;;30.75;51.10
51299;BME280;37382;45.192;9.790;2023-06-24T10:26:22;101392.66;;;30.76;50.68
51299;BME280;37382;45.192;9.790;2023-06-24T10:29:09;101395.78;;;30.74;51.19
51299;BME280;37382;45.192;9.790;2023-06-24T10:34:24;101384.50;;;30.65;47.19
51299;BME280;37382;45.192;9.790;2023-06-24T10:37:08;101392.31;;;30.77;48.16
51299;BME280;37382;45.192;9.790;2023-06-24T10:39:54;101384.22;;;30.39;46.77
51299;BME280;37382;45.192;9.790;2023-06-24T10:45:15;101372.09;;;30.66;47.65
51299;BME280;37382;45.192;9.790;2023-06-24T10:47:49;101378.53;;;31.12;48.25
51299;BME280;37382;45.192;9.790;2023-06-24T10:50:20;101374.97;;;30.98;49.28
51299;BME280;37382;45.192;9.790;2023-06-24T10:52:49;101360.63;;;31.31;47.27
51299;BME280;37382;45.192;9.790;2023-06-24T10:55:25;101362.22;;;31.23;46.76
51299;BME280;37382;45.192;9.790;2023-06-24T10:57:53;101357.16;;;31.34;46.07
51299;BME280;37382;45.192;9.790;2023-06-24T11:00:21;101354.41;;;31.51;46.57
51299;BME280;37382;45.192;9.790;2023-06-24T11:02:49;101348.88;;;31.78;45.73
51299;BME280;37382;45.192;9.790;2023-06-24T11:05:17;101361.38;;;31.54;44.83
51299;BME280;37382;45.192;9.790;2023-06-24T11:07:45;101356.50;;;31.77;44.68
51299;BME280;37382;45.192;9.790;2023-06-24T11:10:14;101345.47;;;31.49;44.82
51299;BME280;37382;45.192;9.790;2023-06-24T11:12:42;101350.19;;;31.63;44.15
51299;BME280;37382;45.192;9.790;2023-06-24T11:15:12;101349.75;;;32.04;43.69
51299;BME280;37382;45.192;9.790;2023-06-24T11:17:41;101344.31;;;32.43;45.30
51299;BME280;37382;45.192;9.790;2023-06-24T11:20:12;101343.50;;;32.25;43.10
51299;BME280;37382;45.192;9.790;2023-06-24T11:22:40;101338.34;;;32.36;43.19
51299;BME280;37382;45.192;9.790;2023-06-24T11:25:16;101337.03;;;32.77;44.35
51299;BME280;37382;45.192;9.790;2023-06-24T11:27:44;101333.66;;;32.92;43.46
51299;BME280;37382;45.192;9.790;2023-06-24T11:30:13;101330.22;;;32.78;43.02
51299;BME280;37382;45.192;9.790;2023-06-24T11:32:42;101330.38;;;32.55;43.63
51299;BME280;37382;45.192;9.790;2023-06-24T11:35:12;101335.38;;;32.32;44.75
51299;BME280;37382;45.192;9.790;2023-06-24T11:37:44;101323.94;;;32.55;42.83
51299;BME280;37382;45.192;9.790;2023-06-24T11:40:16;101322.44;;;32.49;43.05
51299;BME280;37382;45.192;9.790;2023-06-24T11:42:45;101318.34;;;33.11;42.78
51299;BME280;37382;45.192;9.790;2023-06-24T11:45:20;101313.34;;;33.16;40.95
51299;BME280;37382;45.192;9.790;2023-06-24T11:47:48;101311.84;;;33.10;42.22
51299;BME280;37382;45.192;9.790;2023-06-24T11:50:16;101307.69;;;33.25;41.08
51299;BME280;37382;45.192;9.790;2023-06-24T11:52:46;101300.06;;;33.17;41.03
51299;BME280;37382;45.192;9.790;2023-06-24T11:55:16;101304.72;;;32.74;39.63
51299;BME280;37382;45.192;9.790;2023-06-24T12:00:24;101311.84;;;33.10;40.04
51299;BME280;37382;45.192;9.790;2023-06-24T12:02:54;101304.88;;;32.60;39.02
51299;BME280;37382;45.192;9.790;2023-06-24T12:05:34;101297.88;;;32.84;38.26
51299;BME280;37382;45.192;9.790;2023-06-24T12:10:30;101293.72;;;33.59;36.29
51299;BME280;37382;45.192;9.790;2023-06-24T12:13:04;101288.63;;;33.82;35.42
51299;BME280;37382;45.192;9.790;2023-06-24T12:15:36;101287.03;;;33.72;35.34
51299;BME280;37382;45.192;9.790;2023-06-24T12:18:04;101289.00;;;33.72;38.50
51299;BME280;37382;45.192;9.790;2023-06-24T12:20:33;101284.41;;;34.09;36.09
51299;BME280;37382;45.192;9.790;2023-06-24T12:23:05;101283.50;;;34.26;37.27
51299;BME280;37382;45.192;9.790;2023-06-24T12:25:32;101278.47;;;34.44;37.80
51299;BME280;37382;45.192;9.790;2023-06-24T12:28:00;101285.94;;;34.61;38.16
51299;BME280;37382;45.192;9.790;2023-06-24T12:30:28;101278.94;;;33.92;36.66
51299;BME280;37382;45.192;9.790;2023-06-24T12:32:56;101278.31;;;33.86;37.61
51299;BME280;37382;45.192;9.790;2023-06-24T12:35:24;101278.41;;;34.65;37.47
51299;BME280;37382;45.192;9.790;2023-06-24T12:37:55;101280.75;;;34.84;37.82
51299;BME280;37382;45.192;9.790;2023-06-24T12:40:22;101271.06;;;34.85;37.81
51299;BME280;37382;45.192;9.790;2023-06-24T12:42:50;101275.38;;;34.25;35.55
51299;BME280;37382;45.192;9.790;2023-06-24T12:45:17;101274.00;;;34.77;34.92
51299;BME280;37382;45.192;9.790;2023-06-24T12:47:45;101271.75;;;34.36;34.41
51299;BME280;37382;45.192;9.790;2023-06-24T12:50:13;101266.41;;;33.50;35.42
51299;BME280;37382;45.192;9.790;2023-06-24T12:52:40;101265.41;;;34.39;35.22
51299;BME280;37382;45.192;9.790;2023-06-24T12:55:08;101262.44;;;34.15;36.43
51299;BME280;37382;45.192;9.790;2023-06-24T12:57:36;101267.16;;;33.90;35.29
51299;BME280;37382;45.192;9.790;2023-06-24T13:00:05;101250.06;;;34.74;35.88
51299;BME280;37382;45.192;9.790;2023-06-24T13:02:33;101246.66;;;34.35;35.42
51299;BME280;37382;45.192;9.790;2023-06-24T13:05:01;101246.84;;;34.51;35.35
51299;BME280;37382;45.192;9.790;2023-06-24T13:07:30;101242.09;;;35.50;37.19
51299;BME280;37382;45.192;9.790;2023-06-24T13:09:58;101243.53;;;35.07;35.19
51299;BME280;37382;45.192;9.790;2023-06-24T13:12:27;101242.13;;;35.38;34.71
51299;BME280;37382;45.192;9.790;2023-06-24T13:14:55;101244.75;;;35.71;33.95